Time;durP1;ratioP1;P1;durP2;ratioP2;P2;SDS_P1;SDS_P2;PMS_P1;PMS_P2;Temp;Humidity;BMP_temperature;BMP_pressure;BME280_temperature;BME280_humidity;BME280_pressure;Samples;Min_cycle;Max_cycle;Signal;HPM_P1;HPM_P2
2021/12/14 00:04:32;;;;;;;19.30;13.00;;;23.60;49.10;;;;;;214320;1315;22646;-52
2021/12/14 00:09:39;;;;;;;18.20;12.80;;;23.60;49.40;;;;;;214451;1315;22755;-51
2021/12/14 00:19:58;;;;;;;19.00;13.20;;;23.60;49.00;;;;;;214396;1315;25363;-51
2021/12/14 00:25:11;;;;;;;17.80;13.40;;;23.70;48.80;;;;;;214442;1315;24333;-51
2021/12/14 00:30:25;;;;;;;19.80;13.90;;;23.80;48.60;;;;;;214409;1316;22668;-53
2021/12/14 00:35:29;;;;;;;21.60;14.30;;;23.80;48.40;;;;;;214357;1316;22577;-52
2021/12/14 00:40:39;;;;;;;18.70;13.60;;;23.90;48.40;;;;;;214431;1316;22798;-52
2021/12/14 00:45:44;;;;;;;20.50;14.10;;;23.80;48.30;;;;;;214419;1315;23566;-52
2021/12/14 00:50:52;;;;;;;20.40;14.40;;;23.80;48.30;;;;;;214521;1316;22796;-53
2021/12/14 00:55:59;;;;;;;23.50;14.80;;;23.80;48.30;;;;;;214383;1314;24273;-51
2021/12/14 01:01:16;;;;;;;20.10;14.00;;;23.90;48.30;;;;;;214126;1316;22581;-52
2021/12/14 01:06:27;;;;;;;20.90;14.30;;;23.80;48.20;;;;;;214077;1316;368189;-52
2021/12/14 01:11:37;;;;;;;20.20;14.60;;;23.90;48.20;;;;;;214386;1315;22774;-52
2021/12/14 01:16:51;;;;;;;19.00;14.80;;;23.80;48.30;;;;;;214422;1315;24747;-52
2021/12/14 01:27:43;;;;;;;20.40;15.50;;;23.80;48.30;;;;;;214350;1316;22586;-54
2021/12/14 01:32:48;;;;;;;22.70;15.50;;;23.80;48.20;;;;;;214523;1314;24313;-56
2021/12/14 01:38:17;;;;;;;19.70;14.70;;;23.80;48.30;;;;;;214339;1315;22577;-51
2021/12/14 01:43:34;;;;;;;22.50;15.60;;;23.80;48.40;;;;;;214484;1318;22575;-53
2021/12/14 01:48:42;;;;;;;22.20;14.80;;;23.80;48.10;;;;;;214376;1309;23104;-51
2021/12/14 01:54:04;;;;;;;20.90;15.20;;;23.90;48.00;;;;;;214498;1314;22702;-51
2021/12/14 01:59:35;;;;;;;20.70;15.00;;;24.00;48.00;;;;;;214370;1316;25714;-52
2021/12/14 02:04:41;;;;;;;21.20;15.30;;;23.90;48.00;;;;;;214451;1316;22577;-53
2021/12/14 02:09:51;;;;;;;22.40;15.50;;;24.00;47.80;;;;;;214223;1317;22558;-52
2021/12/14 02:15:13;;;;;;;24.70;15.60;;;24.00;47.80;;;;;;214340;1314;24464;-53
2021/12/14 02:20:23;;;;;;;21.70;15.50;;;24.00;47.80;;;;;;214518;1316;22568;-51
2021/12/14 02:25:27;;;;;;;22.40;15.60;;;24.00;47.90;;;;;;214397;1315;22610;-52
2021/12/14 02:30:32;;;;;;;19.60;14.80;;;23.90;48.00;;;;;;214459;1316;22583;-52
2021/12/14 02:35:36;;;;;;;22.50;15.80;;;23.90;48.00;;;;;;214586;1315;22563;-50
2021/12/14 02:40:55;;;;;;;21.40;15.70;;;23.90;48.00;;;;;;214445;1315;22675;-51
2021/12/14 02:46:20;;;;;;;23.30;16.40;;;23.90;47.90;;;;;;214508;1316;22769;-51
2021/12/14 02:51:32;;;;;;;22.80;16.60;;;23.90;48.00;;;;;;214554;1314;22559;-53
2021/12/14 02:56:41;;;;;;;20.80;15.70;;;23.90;48.60;;;;;;214489;1315;25380;-52
2021/12/14 03:01:49;;;;;;;22.00;15.30;;;23.90;48.30;;;;;;214503;1316;22567;-51
2021/12/14 03:06:58;;;;;;;21.80;15.40;;;23.90;48.00;;;;;;214529;1316;22551;-53
2021/12/14 03:12:27;;;;;;;23.40;16.40;;;23.90;48.00;;;;;;214438;1315;25517;-51
2021/12/14 03:17:31;;;;;;;22.10;15.90;;;24.00;47.80;;;;;;214209;1317;26666;-50
2021/12/14 03:23:00;;;;;;;19.60;15.10;;;24.10;47.40;;;;;;214459;1315;24287;-52
2021/12/14 03:28:05;;;;;;;19.90;15.00;;;24.10;47.60;;;;;;214460;1316;25563;-55
2021/12/14 03:33:18;;;;;;;20.70;15.80;;;24.10;47.50;;;;;;214500;1316;22646;-54
2021/12/14 03:38:28;;;;;;;21.80;15.50;;;24.10;47.50;;;;;;214371;1315;23838;-51
2021/12/14 03:43:35;;;;;;;;;;;24.10;48.00;;;;;;214515;1316;22638;-50
2021/12/14 03:48:40;;;;;;;23.30;15.70;;;24.00;47.60;;;;;;214470;1316;26237;-52
2021/12/14 03:53:44;;;;;;;23.40;16.90;;;24.00;47.60;;;;;;214427;1314;22577;-52
2021/12/14 03:58:49;;;;;;;23.20;16.70;;;24.00;48.30;;;;;;214373;1314;22587;-51
2021/12/14 04:04:04;;;;;;;21.20;15.80;;;24.00;47.60;;;;;;214405;1315;22575;-54
2021/12/14 04:09:14;;;;;;;22.30;15.80;;;24.00;47.80;;;;;;214403;1315;22577;-56
2021/12/14 04:14:18;;;;;;;22.00;15.80;;;24.00;47.60;;;;;;214359;1315;22683;-53
2021/12/14 04:19:25;;;;;;;21.30;15.90;;;24.00;47.90;;;;;;214396;1316;25444;-51
2021/12/14 04:24:34;;;;;;;20.60;16.00;;;24.00;47.80;;;;;;214398;1316;22558;-52
2021/12/14 04:29:38;;;;;;;20.40;15.40;;;24.00;47.50;;;;;;214467;1315;22555;-53
2021/12/14 04:34:44;;;;;;;22.20;15.80;;;24.00;47.70;;;;;;214522;1315;22584;-54
2021/12/14 04:51:53;;;;;;;20.30;15.20;;;24.10;47.50;;;;;;214471;1316;22587;-52
2021/12/14 04:56:16;;;;;;;21.50;15.90;;;24.20;47.30;;;;;;214391;1316;25892;-51
2021/12/14 05:01:23;;;;;;;21.30;14.70;;;24.20;47.20;;;;;;214376;1316;25001;-53
2021/12/14 05:06:44;;;;;;;23.00;16.00;;;24.10;47.20;;;;;;214347;1316;24302;-53
2021/12/14 05:12:05;;;;;;;22.60;15.80;;;24.10;47.30;;;;;;214513;1316;22570;-53
2021/12/14 05:17:19;;;;;;;21.30;15.60;;;24.10;47.30;;;;;;214522;1316;22577;-54
2021/12/14 05:22:33;;;;;;;21.30;16.10;;;24.10;47.40;;;;;;214427;1315;25534;-53
2021/12/14 05:27:48;;;;;;;20.90;15.30;;;24.10;47.50;;;;;;214327;1314;23023;-54
2021/12/14 05:32:59;;;;;;;20.50;14.80;;;24.10;47.30;;;;;;214447;1312;22626;-54
2021/12/14 05:38:09;;;;;;;20.50;15.90;;;24.10;47.30;;;;;;214418;1314;22592;-53
2021/12/14 05:43:22;;;;;;;21.00;15.50;;;24.10;47.50;;;;;;214187;1315;22608;-56
2021/12/14 05:48:44;;;;;;;19.20;14.50;;;24.10;47.50;;;;;;214588;1316;22590;-52
2021/12/14 05:53:48;;;;;;;20.00;14.70;;;24.10;47.40;;;;;;214452;1314;22554;-51
2021/12/14 05:58:54;;;;;;;20.60;15.30;;;24.10;47.40;;;;;;214538;1316;22601;-52
2021/12/14 06:04:12;;;;;;;21.30;15.30;;;24.10;47.30;;;;;;214490;1314;24130;-53
2021/12/14 06:09:33;;;;;;;20.60;15.00;;;24.20;47.40;;;;;;214019;1316;22578;-55
2021/12/14 06:15:01;;;;;;;20.70;14.60;;;24.20;47.00;;;;;;214279;1310;25513;-51
2021/12/14 06:20:21;;;;;;;20.20;15.30;;;24.20;47.00;;;;;;214430;1317;24255;-51
2021/12/14 06:25:29;;;;;;;21.80;15.40;;;24.10;47.00;;;;;;214140;1317;22604;-51
2021/12/14 06:30:35;;;;;;;20.30;15.30;;;24.00;47.10;;;;;;214364;1309;24287;-52
2021/12/14 06:35:51;;;;;;;20.90;15.40;;;23.90;47.70;;;;;;214465;1315;25471;-53
2021/12/14 06:41:21;;;;;;;19.30;15.20;;;23.80;47.60;;;;;;214573;1313;25509;-51
2021/12/14 06:46:36;;;;;;;19.40;14.30;;;23.60;47.80;;;;;;214370;1316;23139;-52
2021/12/14 06:51:47;;;;;;;19.50;14.50;;;23.50;48.30;;;;;;214436;1317;25043;-51
2021/12/14 06:57:14;;;;;;;;;;;23.40;48.70;;;;;;214287;1314;25242;-52
2021/12/14 07:02:35;;;;;;;21.80;15.20;;;23.30;49.30;;;;;;214211;1309;24315;-55
2021/12/14 07:08:24;;;;;;;31.40;17.00;;;23.20;49.90;;;;;;213699;1312;25490;-52
2021/12/14 07:13:38;;;;;;;30.20;16.60;;;23.10;50.70;;;;;;214462;1310;22589;-51
2021/12/14 07:18:41;;;;;;;29.40;16.30;;;23.10;51.70;;;;;;214307;1316;22580;-53
2021/12/14 07:23:45;;;;;;;31.70;15.90;;;23.00;52.30;;;;;;214386;1311;22730;-51
2021/12/14 07:28:49;;;;;;;30.90;16.30;;;22.90;52.60;;;;;;214292;1309;22579;-51
2021/12/14 07:33:58;;;;;;;31.70;16.40;;;22.80;52.80;;;;;;214394;1309;22677;-51
2021/12/14 07:39:09;;;;;;;37.30;16.20;;;22.80;53.30;;;;;;214241;1309;22582;-51
2021/12/14 07:44:28;;;;;;;30.00;15.10;;;22.80;53.50;;;;;;214278;1309;25348;-51
2021/12/14 07:49:46;;;;;;;29.50;16.70;;;22.70;54.20;;;;;;214304;1310;22590;-50
2021/12/14 07:55:01;;;;;;;29.80;16.60;;;22.70;54.10;;;;;;214219;1315;25545;-53
2021/12/14 08:00:08;;;;;;;32.60;15.30;;;22.60;54.40;;;;;;214401;1315;24672;-54
2021/12/14 08:05:28;;;;;;;34.90;15.40;;;22.60;54.30;;;;;;214374;1313;22578;-53
2021/12/14 08:10:38;;;;;;;35.70;19.00;;;22.60;54.40;;;;;;214141;1310;22554;-52
2021/12/14 08:15:47;;;;;;;33.90;17.10;;;22.50;53.30;;;;;;213965;1310;22591;-51
2021/12/14 08:21:01;;;;;;;30.80;17.20;;;22.40;53.60;;;;;;216604;1316;25345;-54
2021/12/14 08:26:42;;;;;;;28.80;17.20;;;22.30;53.80;;;;;;214291;1315;24244;-53
2021/12/14 08:32:09;;;;;;;26.80;16.30;;;22.30;53.40;;;;;;214295;1315;24314;-53
2021/12/14 08:37:25;;;;;;;25.90;16.30;;;22.60;52.90;;;;;;214406;1315;22563;-53
2021/12/14 08:42:48;;;;;;;27.20;16.30;;;22.90;52.10;;;;;;214361;1315;22576;-55
2021/12/14 08:48:05;;;;;;;30.20;16.50;;;23.00;51.80;;;;;;214642;1315;26955;-52
2021/12/14 08:53:12;;;;;;;29.40;16.00;;;23.00;51.50;;;;;;214536;1315;25629;-52
2021/12/14 08:58:16;;;;;;;25.20;16.40;;;23.10;51.50;;;;;;214361;1315;23211;-50
2021/12/14 09:03:44;;;;;;;27.10;16.10;;;23.10;51.20;;;;;;214176;1312;257581;-51
2021/12/14 09:08:52;;;;;;;25.30;17.30;;;23.10;51.80;;;;;;214443;1316;26648;-52
2021/12/14 09:14:00;;;;;;;27.10;16.00;;;23.20;50.90;;;;;;214280;1315;22600;-51
2021/12/14 09:19:11;;;;;;;25.80;15.80;;;23.30;51.20;;;;;;214496;1316;24260;-54
2021/12/14 09:24:21;;;;;;;27.30;16.10;;;23.30;51.50;;;;;;214484;1316;22786;-53
2021/12/14 09:29:44;;;;;;;23.10;14.90;;;23.30;51.10;;;;;;214318;1315;22649;-55
2021/12/14 09:35:16;;;;;;;21.80;15.00;;;23.30;51.00;;;;;;214310;1315;22572;-54
2021/12/14 09:40:37;;;;;;;26.30;16.30;;;23.30;51.00;;;;;;214344;1315;24333;-51
2021/12/14 09:45:46;;;;;;;23.90;15.80;;;23.30;50.80;;;;;;214312;1315;22694;-52
2021/12/14 09:50:56;;;;;;;26.80;16.10;;;23.30;50.70;;;;;;214347;1315;22580;-53
2021/12/14 09:56:14;;;;;;;21.70;15.00;;;23.30;50.70;;;;;;214246;1309;24296;-52
2021/12/14 10:02:09;;;;;;;21.90;16.30;;;23.30;50.60;;;;;;214053;1312;24357;-52
2021/12/14 10:07:28;;;;;;;22.80;15.90;;;23.40;50.40;;;;;;214255;1310;25528;-51
2021/12/14 10:12:53;;;;;;;22.40;15.90;;;23.40;50.30;;;;;;214445;1309;24345;-55
2021/12/14 10:18:06;;;;;;;25.00;15.70;;;23.40;50.30;;;;;;214397;1309;22581;-53
2021/12/14 10:23:16;;;;;;;21.80;15.60;;;23.40;50.10;;;;;;214308;1309;25239;-52
2021/12/14 10:28:24;;;;;;;23.80;16.30;;;23.40;49.90;;;;;;214448;1310;22925;-53
2021/12/14 10:33:32;;;;;;;25.80;16.30;;;23.40;49.90;;;;;;214295;1309;22600;-51
2021/12/14 10:38:40;;;;;;;23.90;15.40;;;23.40;50.00;;;;;;214183;1309;24436;-52
2021/12/14 10:43:45;;;;;;;22.90;16.00;;;23.40;49.90;;;;;;214237;1309;22658;-54
2021/12/14 10:48:51;;;;;;;25.10;17.50;;;23.40;50.00;;;;;;214190;1309;23265;-54
2021/12/14 10:53:57;;;;;;;22.50;16.60;;;23.40;49.80;;;;;;213983;1309;22655;-52
2021/12/14 10:59:16;;;;;;;24.90;16.00;;;23.40;50.10;;;;;;214174;1310;25657;-52
2021/12/14 11:04:52;;;;;;;20.60;15.30;;;23.40;49.70;;;;;;214314;1316;23104;-52
2021/12/14 11:10:18;;;;;;;22.30;15.00;;;23.40;49.70;;;;;;214525;1315;23223;-52
2021/12/14 11:15:52;;;;;;;21.40;16.30;;;23.40;49.90;;;;;;214337;1316;22586;-53
2021/12/14 11:21:23;;;;;;;22.90;15.50;;;23.50;49.80;;;;;;214564;1315;22789;-51
2021/12/14 11:26:39;;;;;;;27.20;16.50;;;23.50;49.80;;;;;;214196;1315;22596;-55
2021/12/14 11:31:48;;;;;;;20.70;15.30;;;23.50;49.70;;;;;;214467;1316;25086;-52
2021/12/14 11:36:56;;;;;;;24.50;15.80;;;23.50;49.70;;;;;;214524;1315;22773;-54
2021/12/14 11:42:09;;;;;;;22.80;16.20;;;23.50;50.00;;;;;;214524;1315;23266;-51
2021/12/14 11:52:51;;;;;;;24.80;17.00;;;23.50;49.90;;;;;;214493;1316;22590;-52
2021/12/14 11:58:33;;;;;;;24.80;16.70;;;23.50;49.60;;;;;;214391;1315;25510;-53
2021/12/14 12:03:59;;;;;;;28.20;17.80;;;23.50;49.50;;;;;;214690;1315;22571;-54
2021/12/14 12:09:35;;;;;;;27.10;17.60;;;23.50;49.50;;;;;;214704;1315;25535;-54
2021/12/14 12:14:41;;;;;;;25.90;17.30;;;23.40;49.50;;;;;;214501;1315;22652;-54
2021/12/14 12:20:18;;;;;;;24.50;18.10;;;23.50;49.50;;;;;;214556;1315;24313;-51
2021/12/14 12:25:24;;;;;;;27.80;18.70;;;23.50;49.30;;;;;;214348;1316;22584;-56
2021/12/14 12:30:48;;;;;;;25.80;18.80;;;23.50;49.30;;;;;;214415;1315;22593;-51
2021/12/14 12:36:19;;;;;;;26.60;18.80;;;23.50;49.10;;;;;;214366;1315;25431;-55
2021/12/14 12:41:25;;;;;;;;;;;23.60;49.40;;;;;;214398;1316;24413;-52
2021/12/14 12:46:55;;;;;;;26.60;18.00;;;23.60;49.10;;;;;;214604;1315;24333;-51
2021/12/14 12:52:08;;;;;;;27.90;19.20;;;23.50;49.10;;;;;;214461;1314;25336;-54
2021/12/14 12:57:45;;;;;;;28.90;19.20;;;23.50;49.10;;;;;;214355;1314;26553;-54
2021/12/14 13:03:07;;;;;;;27.20;18.40;;;23.60;49.00;;;;;;214214;1315;24410;-54
2021/12/14 13:08:26;;;;;;;28.20;19.20;;;23.50;49.00;;;;;;214527;1315;25505;-54
2021/12/14 13:13:34;;;;;;;25.10;18.40;;;23.50;48.90;;;;;;214382;1315;22643;-51
2021/12/14 13:18:39;;;;;;;29.20;20.00;;;23.50;49.00;;;;;;214392;1314;25640;-55
2021/12/14 13:24:03;;;;;;;29.40;19.80;;;23.50;48.90;;;;;;214356;1312;22599;-52
2021/12/14 13:29:07;;;;;;;29.90;20.90;;;23.50;48.90;;;;;;214251;1314;22561;-51
2021/12/14 13:34:19;;;;;;;31.70;21.70;;;23.50;48.60;;;;;;214201;1309;24308;-52
2021/12/14 13:45:06;;;;;;;28.60;20.80;;;23.60;48.40;;;;;;214248;1315;25794;-53
2021/12/14 13:50:16;;;;;;;30.70;21.50;;;23.60;48.50;;;;;;214397;1315;22641;-51
2021/12/14 13:55:25;;;;;;;31.10;21.80;;;23.80;48.90;;;;;;214288;1315;25281;-54
2021/12/14 14:01:15;;;;;;;32.20;21.70;;;23.80;49.90;;;;;;214394;1310;22571;-53
2021/12/14 14:06:31;;;;;;;32.20;22.20;;;23.80;51.60;;;;;;213923;1309;24325;-56
2021/12/14 14:11:36;;;;;;;32.40;22.80;;;23.80;52.00;;;;;;214438;1309;24245;-54
2021/12/14 14:16:52;;;;;;;36.40;21.60;;;23.80;52.50;;;;;;214123;1316;22641;-54
2021/12/14 14:22:04;;;;;;;30.90;20.60;;;23.80;52.40;;;;;;214301;1313;22603;-51
2021/12/14 14:27:42;;;;;;;30.30;20.70;;;23.70;52.30;;;;;;214249;1309;24248;-51
2021/12/14 14:33:29;;;;;;;32.80;22.70;;;23.70;52.10;;;;;;214248;1309;24251;-54
2021/12/14 14:38:41;;;;;;;30.30;21.50;;;23.70;52.20;;;;;;213453;1317;24171;-48
2021/12/14 14:43:58;;;;;;;27.90;20.60;;;23.70;52.00;;;;;;214560;1316;22672;-53
2021/12/14 14:49:16;;;;;;;34.60;21.20;;;23.60;51.70;;;;;;214343;1313;22638;-50
2021/12/14 14:54:33;;;;;;;29.30;19.70;;;23.70;52.90;;;;;;214360;1316;22703;-55
2021/12/14 14:59:42;;;;;;;35.20;20.60;;;23.80;52.40;;;;;;214356;1315;22707;-52
2021/12/14 15:05:16;;;;;;;29.80;19.50;;;23.70;52.70;;;;;;214567;1314;23056;-56
2021/12/14 15:10:29;;;;;;;32.10;19.60;;;23.60;53.10;;;;;;214275;1315;25380;-54
2021/12/14 15:15:33;;;;;;;36.10;20.50;;;23.50;53.50;;;;;;214356;1314;22569;-53
2021/12/14 15:20:38;;;;;;;32.30;21.10;;;23.40;53.50;;;;;;214250;1315;25431;-54
2021/12/14 15:25:45;;;;;;;36.20;20.70;;;23.20;53.60;;;;;;214609;1315;22593;-54
2021/12/14 15:30:56;;;;;;;30.90;20.00;;;23.10;53.50;;;;;;214495;1315;22752;-52
2021/12/14 15:36:14;;;;;;;27.50;18.40;;;23.00;53.60;;;;;;214484;1315;24379;-57
2021/12/14 15:41:25;;;;;;;29.80;20.10;;;22.90;53.70;;;;;;214360;1315;24451;-53
2021/12/14 15:46:43;;;;;;;31.40;20.60;;;22.80;54.20;;;;;;214304;1316;22568;-53
2021/12/14 15:51:55;;;;;;;29.30;18.60;;;22.80;54.00;;;;;;214381;1310;26637;-54
2021/12/14 15:57:15;;;;;;;30.70;20.50;;;22.70;53.60;;;;;;214554;1310;24878;-52
2021/12/14 16:02:31;;;;;;;30.70;19.20;;;22.60;53.90;;;;;;214302;1310;25281;-52
2021/12/14 16:07:39;;;;;;;28.70;17.20;;;22.60;53.70;;;;;;214349;1315;22590;-54
2021/12/14 16:18:15;;;;;;;21.60;14.60;;;22.60;54.00;;;;;;213983;1309;25559;-50
2021/12/14 16:23:25;;;;;;;19.30;13.10;;;22.60;53.90;;;;;;214454;1310;22572;-52
2021/12/14 16:28:39;;;;;;;21.50;11.70;;;22.60;53.90;;;;;;214327;1314;22634;-55
2021/12/14 16:33:51;;;;;;;18.30;12.20;;;22.50;54.10;;;;;;214145;1309;23954;-54
2021/12/14 16:39:04;;;;;;;20.20;10.90;;;22.40;54.50;;;;;;214023;1310;22562;-55
2021/12/14 16:44:22;;;;;;;16.70;10.70;;;22.50;55.50;;;;;;214849;1309;22667;-54
2021/12/14 16:49:30;;;;;;;;;;;22.40;55.80;;;;;;214346;1317;22566;-54
2021/12/14 16:54:42;;;;;;;14.30;8.70;;;22.30;56.00;;;;;;214567;1309;24333;-54
2021/12/14 16:59:57;;;;;;;13.60;8.20;;;22.30;56.00;;;;;;214241;1309;25524;-53
2021/12/14 17:05:23;;;;;;;16.10;8.60;;;22.30;56.60;;;;;;213993;1309;322516;-57
2021/12/14 17:10:36;;;;;;;11.70;7.90;;;22.30;56.10;;;;;;214056;1310;22656;-56
2021/12/14 17:15:48;;;;;;;12.40;6.90;;;22.30;55.90;;;;;;214242;1312;24333;-53
2021/12/14 17:21:20;;;;;;;10.10;6.20;;;22.30;55.90;;;;;;213818;1309;24755;-50
2021/12/14 17:26:27;;;;;;;11.80;6.60;;;22.30;55.90;;;;;;214132;1314;26874;-54
2021/12/14 17:31:44;;;;;;;8.60;5.80;;;22.20;55.90;;;;;;213952;1309;25534;-56
2021/12/14 17:37:00;;;;;;;13.80;5.60;;;22.20;55.90;;;;;;214134;1309;22643;-53
2021/12/14 17:42:17;;;;;;;12.00;5.60;;;22.20;55.90;;;;;;213970;1309;25258;-52
2021/12/14 17:47:37;;;;;;;7.60;4.80;;;22.20;55.90;;;;;;213933;1309;24368;-52
2021/12/14 17:52:56;;;;;;;8.20;5.20;;;22.20;56.00;;;;;;213664;1309;25451;-55
2021/12/14 17:58:45;;;;;;;9.30;5.30;;;22.10;55.80;;;;;;213761;1309;22583;-54
2021/12/14 18:04:08;;;;;;;6.90;4.30;;;22.10;55.70;;;;;;213721;1309;24413;-56
2021/12/14 18:09:21;;;;;;;9.10;5.20;;;22.10;55.50;;;;;;213712;1309;22597;-52
2021/12/14 18:14:51;;;;;;;7.00;4.40;;;22.10;55.60;;;;;;213625;1312;25505;-55
2021/12/14 18:20:36;;;;;;;7.40;4.20;;;22.00;55.20;;;;;;214386;1309;22799;-54
2021/12/14 18:25:45;;;;;;;8.40;4.30;;;22.50;54.60;;;;;;214060;1313;27022;-53
2021/12/14 18:30:57;;;;;;;6.90;3.90;;;22.80;53.70;;;;;;214165;1310;24277;-55
2021/12/14 18:36:47;;;;;;;7.00;3.60;;;22.90;53.30;;;;;;214150;1309;24499;-51
2021/12/14 18:42:19;;;;;;;5.80;3.60;;;23.00;52.90;;;;;;214042;1310;22554;-53
2021/12/14 18:53:54;;;;;;;5.50;3.50;;;23.20;52.50;;;;;;214385;1316;24749;-53
2021/12/14 18:59:22;;;;;;;5.30;3.60;;;23.20;52.50;;;;;;214415;1314;22681;-54
2021/12/14 19:04:40;;;;;;;4.70;3.10;;;23.20;52.60;;;;;;214390;1309;22615;-54
2021/12/14 19:09:49;;;;;;;5.50;3.00;;;23.20;52.30;;;;;;214505;1315;22682;-52
2021/12/14 19:15:30;;;;;;;5.50;3.30;;;23.20;52.50;;;;;;214572;1309;27095;-53
2021/12/14 19:20:53;;;;;;;6.40;3.20;;;23.20;52.90;;;;;;214277;1312;25351;-55
2021/12/14 19:26:34;;;;;;;6.90;3.20;;;23.10;52.30;;;;;;213972;1309;22636;-52
2021/12/14 19:32:28;;;;;;;8.70;3.70;;;23.20;52.80;;;;;;214053;1309;22795;-52
2021/12/14 19:37:52;;;;;;;8.80;4.80;;;23.20;52.60;;;;;;214210;1317;25387;-53
2021/12/14 19:43:22;;;;;;;9.40;4.70;;;23.30;51.80;;;;;;214355;1316;25512;-55
2021/12/14 19:48:51;;;;;;;6.30;4.40;;;23.20;52.50;;;;;;214331;1310;26062;-54
2021/12/14 19:54:24;;;;;;;7.80;4.30;;;23.30;52.50;;;;;;213924;1315;24430;-51
2021/12/14 19:59:51;;;;;;;5.70;3.60;;;23.30;52.50;;;;;;214349;1313;22723;-52
2021/12/14 20:05:01;;;;;;;7.00;3.30;;;23.40;52.80;;;;;;214519;1315;22719;-55
2021/12/14 20:10:11;;;;;;;8.60;3.50;;;23.40;53.00;;;;;;214492;1315;22564;-51
2021/12/14 20:15:30;;;;;;;8.20;3.50;;;23.40;53.10;;;;;;214384;1316;26598;-55
2021/12/14 20:20:42;;;;;;;7.70;3.30;;;23.50;53.10;;;;;;214452;1315;25682;-53
2021/12/14 20:25:57;;;;;;;5.60;3.30;;;23.40;53.30;;;;;;214170;1317;24398;-55
2021/12/14 20:31:13;;;;;;;7.00;3.00;;;23.50;52.70;;;;;;214437;1315;25586;-57
2021/12/14 20:36:22;;;;;;;4.20;2.50;;;23.60;52.50;;;;;;214296;1309;24372;-57
2021/12/14 20:41:37;;;;;;;6.80;2.90;;;23.60;52.30;;;;;;214401;1315;22808;-54
2021/12/14 20:47:08;;;;;;;5.00;3.00;;;23.60;52.00;;;;;;214379;1316;22733;-54
2021/12/14 20:52:23;;;;;;;5.80;2.70;;;23.70;51.90;;;;;;214163;1310;24118;-56
2021/12/14 20:57:42;;;;;;;5.10;2.80;;;23.60;51.90;;;;;;214320;1313;24472;-52
2021/12/14 21:02:51;;;;;;;;;;;23.60;51.80;;;;;;214362;1315;22581;-53
2021/12/14 21:08:15;;;;;;;4.20;2.70;;;23.60;51.80;;;;;;214476;1316;23916;-54
2021/12/14 21:13:41;;;;;;;5.10;3.00;;;23.60;52.10;;;;;;214347;1314;26875;-54
2021/12/14 21:18:54;;;;;;;3.90;2.70;;;23.60;51.60;;;;;;214375;1316;25390;-53
2021/12/14 21:24:15;;;;;;;3.50;2.30;;;23.70;51.80;;;;;;214323;1316;22575;-55
2021/12/14 21:29:21;;;;;;;4.30;2.90;;;23.70;51.30;;;;;;214247;1317;25339;-54
2021/12/14 21:34:26;;;;;;;4.80;2.40;;;23.80;51.20;;;;;;214288;1309;22570;-52
2021/12/14 21:39:30;;;;;;;4.40;2.60;;;23.70;51.20;;;;;;214409;1310;22584;-56
2021/12/14 21:50:02;;;;;;;5.20;2.60;;;23.70;51.10;;;;;;214493;1314;25623;-56
2021/12/14 21:55:19;;;;;;;5.70;2.60;;;23.70;51.10;;;;;;214874;1315;24649;-56
2021/12/14 22:00:33;;;;;;;3.40;2.20;;;23.60;51.20;;;;;;213901;1315;25698;-56
2021/12/14 22:05:41;;;;;;;4.30;2.80;;;23.70;51.10;;;;;;214294;1313;22586;-55
2021/12/14 22:10:52;;;;;;;5.70;3.00;;;23.70;51.00;;;;;;214020;1315;22664;-56
2021/12/14 22:16:00;;;;;;;4.80;2.70;;;23.80;51.20;;;;;;214165;1315;24369;-54
2021/12/14 22:21:12;;;;;;;5.40;2.30;;;23.70;51.30;;;;;;214272;1311;22710;-53
2021/12/14 22:26:24;;;;;;;5.50;3.20;;;23.60;51.80;;;;;;214322;1316;24277;-52
2021/12/14 22:31:29;;;;;;;4.60;3.10;;;23.70;50.80;;;;;;214260;1310;25059;-51
2021/12/14 22:36:34;;;;;;;9.30;3.60;;;23.80;50.90;;;;;;214442;1317;24059;-54
2021/12/14 22:47:21;;;;;;;6.60;4.00;;;23.80;51.20;;;;;;213427;1316;22592;-53
2021/12/14 22:52:29;;;;;;;6.60;3.70;;;23.70;51.10;;;;;;214099;1309;22606;-55
2021/12/14 22:57:33;;;;;;;8.40;4.10;;;23.50;51.20;;;;;;214256;1315;26715;-55
2021/12/14 23:02:38;;;;;;;8.80;4.60;;;23.30;51.20;;;;;;214338;1314;22582;-51
2021/12/14 23:07:53;;;;;;;11.60;4.30;;;23.20;52.00;;;;;;214381;1314;24441;-52
2021/12/14 23:13:05;;;;;;;11.60;4.90;;;23.10;52.10;;;;;;214420;1316;24412;-54
2021/12/14 23:18:21;;;;;;;11.60;5.20;;;23.20;51.90;;;;;;214483;1310;24429;-53
2021/12/14 23:23:28;;;;;;;11.90;5.50;;;23.50;51.90;;;;;;214397;1310;25337;-54
2021/12/14 23:28:37;;;;;;;13.90;5.20;;;23.50;51.40;;;;;;214297;1314;22596;-52
2021/12/14 23:33:41;;;;;;;11.30;5.90;;;23.50;51.60;;;;;;214391;1317;24296;-57
2021/12/14 23:38:49;;;;;;;10.90;5.40;;;23.60;51.30;;;;;;214304;1317;22654;-51
2021/12/14 23:43:55;;;;;;;11.60;5.50;;;23.60;51.20;;;;;;214416;1317;22634;-54
2021/12/14 23:49:04;;;;;;;10.70;5.80;;;23.70;51.10;;;;;;214017;1318;22616;-55
2021/12/14 23:54:15;;;;;;;14.30;5.80;;;23.60;51.00;;;;;;214379;1317;24442;-52
2021/12/14 23:59:25;;;;;;;11.30;5.40;;;23.60;50.90;;;;;;214353;1316;24352;-53
